sensor_id;sensor_type;location;lat;lon;timestamp;pressure;altitude;pressure_sealevel;temperature;humidity
7052;BME280;3567;52.444;13.556;2023-03-23T00:02:28;100253.00;;;11.44;84.88
7052;BME280;3567;52.444;13.556;2023-03-23T00:04:54;100253.50;;;11.41;85.12
7052;BME280;3567;52.444;13.556;2023-03-23T00:07:21;100255.63;;;11.39;85.23
7052;BME280;3567;52.444;13.556;2023-03-23T00:09:53;100247.25;;;11.36;84.97
7052;BME280;3567;52.444;13.556;2023-03-23T00:12:23;100242.13;;;11.34;85.17
7052;BME280;3567;52.444;13.556;2023-03-23T00:14:58;100232.97;;;11.30;85.47
7052;BME280;3567;52.444;13.556;2023-03-23T00:17:25;100231.56;;;11.27;85.37
7052;BME280;3567;52.444;13.556;2023-03-23T00:19:51;100224.84;;;11.25;85.92
7052;BME280;3567;52.444;13.556;2023-03-23T00:22:17;100219.97;;;11.22;85.64
7052;BME280;3567;52.444;13.556;2023-03-23T00:24:44;100215.91;;;11.19;85.80
7052;BME280;3567;52.444;13.556;2023-03-23T00:27:10;100219.34;;;11.15;85.94
7052;BME280;3567;52.444;13.556;2023-03-23T00:29:38;100224.09;;;11.13;86.09
7052;BME280;3567;52.444;13.556;2023-03-23T00:32:03;100217.03;;;11.07;86.27
7052;BME280;3567;52.444;13.556;2023-03-23T00:34:29;100210.31;;;11.04;86.30
7052;BME280;3567;52.444;13.556;2023-03-23T00:36:57;100205.69;;;10.99;86.81
7052;BME280;3567;52.444;13.556;2023-03-23T00:39:24;100212.03;;;10.93;86.49
7052;BME280;3567;52.444;13.556;2023-03-23T00:41:51;100209.81;;;10.90;86.65
7052;BME280;3567;52.444;13.556;2023-03-23T00:44:16;100209.50;;;10.87;87.07
7052;BME280;3567;52.444;13.556;2023-03-23T00:46:43;100211.06;;;10.83;86.88
7052;BME280;3567;52.444;13.556;2023-03-23T00:49:13;100206.75;;;10.82;86.89
7052;BME280;3567;52.444;13.556;2023-03-23T00:51:39;100199.19;;;10.79;87.36
7052;BME280;3567;52.444;13.556;2023-03-23T00:54:05;100199.44;;;10.77;87.46
7052;BME280;3567;52.444;13.556;2023-03-23T00:56:30;100201.78;;;10.73;87.54
7052;BME280;3567;52.444;13.556;2023-03-23T00:58:56;100192.59;;;10.69;87.59
7052;BME280;3567;52.444;13.556;2023-03-23T01:01:21;100194.97;;;10.66;87.65
7052;BME280;3567;52.444;13.556;2023-03-23T01:03:46;100197.06;;;10.64;88.29
7052;BME280;3567;52.444;13.556;2023-03-23T01:06:12;100186.84;;;10.61;87.96
7052;BME280;3567;52.444;13.556;2023-03-23T01:08:39;100187.06;;;10.59;88.11
7052;BME280;3567;52.444;13.556;2023-03-23T01:11:14;100185.34;;;10.53;88.19
7052;BME280;3567;52.444;13.556;2023-03-23T01:13:41;100165.25;;;10.51;88.35
7052;BME280;3567;52.444;13.556;2023-03-23T01:16:07;100175.16;;;10.50;88.18
7052;BME280;3567;52.444;13.556;2023-03-23T01:18:33;100166.31;;;10.49;88.42
7052;BME280;3567;52.444;13.556;2023-03-23T01:21:07;100167.91;;;10.51;87.78
7052;BME280;3567;52.444;13.556;2023-03-23T01:23:34;100166.06;;;10.51;87.91
7052;BME280;3567;52.444;13.556;2023-03-23T01:26:12;100160.44;;;10.53;87.89
7052;BME280;3567;52.444;13.556;2023-03-23T01:28:39;100157.28;;;10.56;87.78
7052;BME280;3567;52.444;13.556;2023-03-23T01:31:09;100168.00;;;10.56;87.45
7052;BME280;3567;52.444;13.556;2023-03-23T01:33:38;100158.09;;;10.56;87.78
7052;BME280;3567;52.444;13.556;2023-03-23T01:36:06;100159.16;;;10.55;87.43
7052;BME280;3567;52.444;13.556;2023-03-23T01:38:33;100159.38;;;10.54;87.43
7052;BME280;3567;52.444;13.556;2023-03-23T01:40:59;100151.59;;;10.52;87.59
7052;BME280;3567;52.444;13.556;2023-03-23T01:43:25;100156.63;;;10.48;87.45
7052;BME280;3567;52.444;13.556;2023-03-23T01:45:50;100142.94;;;10.45;87.46
7052;BME280;3567;52.444;13.556;2023-03-23T01:48:27;100150.63;;;10.41;88.04
7052;BME280;3567;52.444;13.556;2023-03-23T01:51:09;100152.16;;;10.37;87.66
7052;BME280;3567;52.444;13.556;2023-03-23T01:53:40;100144.63;;;10.34;87.47
7052;BME280;3567;52.444;13.556;2023-03-23T01:56:08;100152.06;;;10.32;88.10
7052;BME280;3567;52.444;13.556;2023-03-23T01:58:38;100149.63;;;10.31;88.14
7052;BME280;3567;52.444;13.556;2023-03-23T02:01:08;100146.16;;;10.30;87.97
7052;BME280;3567;52.444;13.556;2023-03-23T02:03:38;100138.91;;;10.31;88.28
7052;BME280;3567;52.444;13.556;2023-03-23T02:06:05;100142.75;;;10.35;88.13
7052;BME280;3567;52.444;13.556;2023-03-23T02:08:31;100130.16;;;10.35;88.11
7052;BME280;3567;52.444;13.556;2023-03-23T02:10:58;100133.41;;;10.37;88.41
7052;BME280;3567;52.444;13.556;2023-03-23T02:13:25;100131.63;;;10.43;87.70
7052;BME280;3567;52.444;13.556;2023-03-23T02:16:03;100136.50;;;10.46;87.88
7052;BME280;3567;52.444;13.556;2023-03-23T02:18:51;100118.31;;;10.48;87.97
7052;BME280;3567;52.444;13.556;2023-03-23T02:21:44;100120.78;;;10.49;87.74
7052;BME280;3567;52.444;13.556;2023-03-23T02:24:26;100135.19;;;10.48;87.94
7052;BME280;3567;52.444;13.556;2023-03-23T02:27:08;100127.41;;;10.47;87.89
7052;BME280;3567;52.444;13.556;2023-03-23T02:32:12;100128.22;;;10.47;87.64
7052;BME280;3567;52.444;13.556;2023-03-23T02:34:49;100120.03;;;10.54;87.70
7052;BME280;3567;52.444;13.556;2023-03-23T02:37:31;100111.25;;;10.59;87.50
7052;BME280;3567;52.444;13.556;2023-03-23T02:40:12;100116.69;;;10.64;87.88
7052;BME280;3567;52.444;13.556;2023-03-23T02:42:44;100111.19;;;10.70;86.76
7052;BME280;3567;52.444;13.556;2023-03-23T02:45:11;100113.13;;;10.75;86.94
7052;BME280;3567;52.444;13.556;2023-03-23T02:47:38;100116.69;;;10.81;86.66
7052;BME280;3567;52.444;13.556;2023-03-23T02:50:07;100117.84;;;10.85;86.19
7052;BME280;3567;52.444;13.556;2023-03-23T02:52:36;100118.16;;;10.88;86.19
7052;BME280;3567;52.444;13.556;2023-03-23T02:55:04;100124.41;;;10.94;85.96
7052;BME280;3567;52.444;13.556;2023-03-23T02:57:30;100122.59;;;10.99;86.05
7052;BME280;3567;52.444;13.556;2023-03-23T02:59:56;100121.88;;;11.04;85.25
7052;BME280;3567;52.444;13.556;2023-03-23T03:02:25;100121.38;;;11.07;85.38
7052;BME280;3567;52.444;13.556;2023-03-23T03:05:22;100116.66;;;11.14;85.11
7052;BME280;3567;52.444;13.556;2023-03-23T03:18:54;100097.97;;;11.41;83.91
7052;BME280;3567;52.444;13.556;2023-03-23T03:21:23;100107.16;;;11.45;83.73
7052;BME280;3567;52.444;13.556;2023-03-23T03:23:54;100106.63;;;11.48;83.86
7052;BME280;3567;52.444;13.556;2023-03-23T03:26:22;100107.22;;;11.50;83.69
7052;BME280;3567;52.444;13.556;2023-03-23T03:28:52;100109.38;;;11.53;83.61
7052;BME280;3567;52.444;13.556;2023-03-23T03:31:22;100105.63;;;11.54;84.15
7052;BME280;3567;52.444;13.556;2023-03-23T03:33:48;100106.69;;;11.53;84.05
7052;BME280;3567;52.444;13.556;2023-03-23T03:36:22;100116.06;;;11.51;85.10
7052;BME280;3567;52.444;13.556;2023-03-23T03:38:50;100101.84;;;11.50;85.45
7052;BME280;3567;52.444;13.556;2023-03-23T03:41:17;100095.41;;;11.51;85.05
7052;BME280;3567;52.444;13.556;2023-03-23T03:43:43;100104.00;;;11.53;85.53
7052;BME280;3567;52.444;13.556;2023-03-23T03:46:08;100101.06;;;11.55;85.46
7052;BME280;3567;52.444;13.556;2023-03-23T03:48:34;100094.41;;;11.58;85.02
7052;BME280;3567;52.444;13.556;2023-03-23T03:50:59;100085.31;;;11.59;85.02
7052;BME280;3567;52.444;13.556;2023-03-23T03:53:27;100093.59;;;11.57;86.01
7052;BME280;3567;52.444;13.556;2023-03-23T03:55:52;100083.69;;;11.58;85.95
7052;BME280;3567;52.444;13.556;2023-03-23T03:58:25;100086.31;;;11.52;87.03
7052;BME280;3567;52.444;13.556;2023-03-23T04:00:50;100088.94;;;11.47;87.39
7052;BME280;3567;52.444;13.556;2023-03-23T04:03:18;100091.53;;;11.42;86.67
7052;BME280;3567;52.444;13.556;2023-03-23T04:05:43;100082.13;;;11.40;87.24
7052;BME280;3567;52.444;13.556;2023-03-23T04:08:10;100082.31;;;11.33;87.66
7052;BME280;3567;52.444;13.556;2023-03-23T04:10:36;100096.78;;;11.32;87.98
7052;BME280;3567;52.444;13.556;2023-03-23T04:13:02;100098.91;;;11.30;88.73
7052;BME280;3567;52.444;13.556;2023-03-23T04:15:30;100096.44;;;11.28;88.69
7052;BME280;3567;52.444;13.556;2023-03-23T04:17:55;100099.41;;;11.27;88.87
7052;BME280;3567;52.444;13.556;2023-03-23T04:20:22;100082.50;;;11.26;88.69
7052;BME280;3567;52.444;13.556;2023-03-23T04:22:47;100077.63;;;11.23;89.74
7052;BME280;3567;52.444;13.556;2023-03-23T04:25:18;100072.53;;;11.22;89.66
7052;BME280;3567;52.444;13.556;2023-03-23T04:27:50;100075.19;;;11.22;89.28
7052;BME280;3567;52.444;13.556;2023-03-23T04:30:24;100090.47;;;11.21;89.60
7052;BME280;3567;52.444;13.556;2023-03-23T04:32:50;100085.13;;;11.21;89.71
7052;BME280;3567;52.444;13.556;2023-03-23T04:35:18;100078.94;;;11.21;89.85
7052;BME280;3567;52.444;13.556;2023-03-23T04:37:45;100065.00;;;11.19;90.63
7052;BME280;3567;52.444;13.556;2023-03-23T04:40:11;100069.22;;;11.15;91.65
7052;BME280;3567;52.444;13.556;2023-03-23T04:42:38;100084.66;;;11.08;92.26
7052;BME280;3567;52.444;13.556;2023-03-23T04:45:07;100074.94;;;11.01;93.51
7052;BME280;3567;52.444;13.556;2023-03-23T04:47:34;100066.59;;;10.98;92.99
7052;BME280;3567;52.444;13.556;2023-03-23T04:50:06;100072.19;;;10.96;93.26
7052;BME280;3567;52.444;13.556;2023-03-23T04:52:33;100077.53;;;10.96;93.49
7052;BME280;3567;52.444;13.556;2023-03-23T04:57:11;100094.69;;;10.95;94.22
7052;BME280;3567;52.444;13.556;2023-03-23T04:59:37;100098.16;;;10.96;94.20
7052;BME280;3567;52.444;13.556;2023-03-23T05:02:02;100097.09;;;10.97;94.03
7052;BME280;3567;52.444;13.556;2023-03-23T05:04:28;100089.66;;;10.99;93.92
7052;BME280;3567;52.444;13.556;2023-03-23T05:06:53;100107.88;;;11.02;93.99
7052;BME280;3567;52.444;13.556;2023-03-23T05:09:19;100101.50;;;11.03;93.92
7052;BME280;3567;52.444;13.556;2023-03-23T05:11:45;100095.06;;;11.04;94.46
7052;BME280;3567;52.444;13.556;2023-03-23T05:14:10;100090.53;;;11.05;94.63
7052;BME280;3567;52.444;13.556;2023-03-23T05:16:36;100095.63;;;11.06;94.57
7052;BME280;3567;52.444;13.556;2023-03-23T05:19:02;100094.56;;;11.07;94.27
7052;BME280;3567;52.444;13.556;2023-03-23T05:21:30;100097.03;;;11.09;94.33
7052;BME280;3567;52.444;13.556;2023-03-23T05:23:55;100102.13;;;11.10;94.38
7052;BME280;3567;52.444;13.556;2023-03-23T05:26:21;100099.69;;;11.09;94.68
7052;BME280;3567;52.444;13.556;2023-03-23T05:28:48;100101.00;;;11.06;95.10
7052;BME280;3567;52.444;13.556;2023-03-23T05:31:18;100103.66;;;11.06;95.14
7052;BME280;3567;52.444;13.556;2023-03-23T05:33:43;100110.34;;;11.04;96.23
7052;BME280;3567;52.444;13.556;2023-03-23T05:36:09;100103.84;;;10.99;96.54
7052;BME280;3567;52.444;13.556;2023-03-23T05:38:35;100112.38;;;10.96;96.73
7052;BME280;3567;52.444;13.556;2023-03-23T05:41:04;100113.19;;;10.97;96.68
7052;BME280;3567;52.444;13.556;2023-03-23T05:43:29;100122.88;;;10.98;96.35
7052;BME280;3567;52.444;13.556;2023-03-23T05:45:55;100119.69;;;11.01;95.80
7052;BME280;3567;52.444;13.556;2023-03-23T05:48:20;100117.81;;;11.01;96.79
7052;BME280;3567;52.444;13.556;2023-03-23T05:50:47;100119.94;;;10.99;96.65
7052;BME280;3567;52.444;13.556;2023-03-23T05:53:12;100119.59;;;10.96;97.24
7052;BME280;3567;52.444;13.556;2023-03-23T05:55:38;100120.34;;;10.91;97.84
7052;BME280;3567;52.444;13.556;2023-03-23T05:58:03;100128.28;;;10.86;98.53
7052;BME280;3567;52.444;13.556;2023-03-23T06:00:28;100127.19;;;10.82;98.78
7052;BME280;3567;52.444;13.556;2023-03-23T06:02:56;100130.84;;;10.76;99.75
7052;BME280;3567;52.444;13.556;2023-03-23T06:05:22;100137.16;;;10.70;100.00
7052;BME280;3567;52.444;13.556;2023-03-23T06:07:49;100142.22;;;10.66;100.00
7052;BME280;3567;52.444;13.556;2023-03-23T06:10:14;100131.63;;;10.60;100.00
7052;BME280;3567;52.444;13.556;2023-03-23T06:12:40;100132.59;;;10.54;100.00
7052;BME280;3567;52.444;13.556;2023-03-23T06:15:06;100145.69;;;10.50;100.00
7052;BME280;3567;52.444;13.556;2023-03-23T06:17:33;100147.47;;;10.44;100.00
7052;BME280;3567;52.444;13.556;2023-03-23T06:19:59;100141.69;;;10.36;100.00
7052;BME280;3567;52.444;13.556;2023-03-23T06:22:25;100142.91;;;10.28;100.00
7052;BME280;3567;52.444;13.556;2023-03-23T06:24:51;100144.63;;;10.22;100.00
7052;BME280;3567;52.444;13.556;2023-03-23T06:27:17;100147.44;;;10.16;100.00
7052;BME280;3567;52.444;13.556;2023-03-23T06:29:42;100144.69;;;10.11;100.00
7052;BME280;3567;52.444;13.556;2023-03-23T06:32:10;100157.97;;;10.06;100.00
7052;BME280;3567;52.444;13.556;2023-03-23T06:34:37;100151.00;;;10.05;100.00
7052;BME280;3567;52.444;13.556;2023-03-23T06:37:02;100150.66;;;10.01;100.00
7052;BME280;3567;52.444;13.556;2023-03-23T06:39:28;100149.28;;;9.98;100.00
7052;BME280;3567;52.444;13.556;2023-03-23T06:41:53;100149.53;;;9.97;100.00
7052;BME280;3567;52.444;13.556;2023-03-23T06:44:19;100156.97;;;9.95;100.00
7052;BME280;3567;52.444;13.556;2023-03-23T06:46:45;100154.53;;;9.93;100.00
7052;BME280;3567;52.444;13.556;2023-03-23T06:49:11;100156.41;;;9.93;100.00
7052;BME280;3567;52.444;13.556;2023-03-23T06:51:37;100157.66;;;9.90;100.00
7052;BME280;3567;52.444;13.556;2023-03-23T06:54:03;100164.44;;;9.93;100.00
7052;BME280;3567;52.444;13.556;2023-03-23T06:56:29;100169.31;;;9.96;100.00
7052;BME280;3567;52.444;13.556;2023-03-23T06:58:55;100165.91;;;10.01;100.00
7052;BME280;3567;52.444;13.556;2023-03-23T07:01:20;100164.88;;;10.02;100.00
7052;BME280;3567;52.444;13.556;2023-03-23T07:03:46;100169.16;;;10.03;100.00
7052;BME280;3567;52.444;13.556;2023-03-23T07:06:11;100169.16;;;10.03;100.00
7052;BME280;3567;52.444;13.556;2023-03-23T07:08:37;100166.00;;;10.06;100.00
7052;BME280;3567;52.444;13.556;2023-03-23T07:11:03;100163.91;;;10.08;100.00
7052;BME280;3567;52.444;13.556;2023-03-23T07:13:28;100173.06;;;10.12;100.00
7052;BME280;3567;52.444;13.556;2023-03-23T07:15:54;100165.03;;;10.12;100.00
7052;BME280;3567;52.444;13.556;2023-03-23T07:18:20;100170.97;;;10.14;100.00
7052;BME280;3567;52.444;13.556;2023-03-23T07:20:49;100172.59;;;10.15;100.00
7052;BME280;3567;52.444;13.556;2023-03-23T07:23:16;100160.03;;;10.15;100.00
7052;BME280;3567;52.444;13.556;2023-03-23T07:25:43;100167.25;;;10.15;100.00
7052;BME280;3567;52.444;13.556;2023-03-23T07:28:08;100168.31;;;10.14;100.00
7052;BME280;3567;52.444;13.556;2023-03-23T07:30:33;100178.50;;;10.17;100.00
7052;BME280;3567;52.444;13.556;2023-03-23T07:32:59;100166.78;;;10.18;100.00
7052;BME280;3567;52.444;13.556;2023-03-23T07:35:25;100154.44;;;10.17;100.00
7052;BME280;3567;52.444;13.556;2023-03-23T07:37:51;100159.56;;;10.18;100.00
7052;BME280;3567;52.444;13.556;2023-03-23T07:40:17;100157.69;;;10.19;100.00
7052;BME280;3567;52.444;13.556;2023-03-23T07:42:45;100149.91;;;10.17;100.00
7052;BME280;3567;52.444;13.556;2023-03-23T07:45:14;100174.81;;;10.18;100.00
7052;BME280;3567;52.444;13.556;2023-03-23T07:47:40;100180.47;;;10.21;100.00
7052;BME280;3567;52.444;13.556;2023-03-23T07:50:06;100178.19;;;10.25;100.00
7052;BME280;3567;52.444;13.556;2023-03-23T07:52:33;100169.19;;;10.31;100.00
7052;BME280;3567;52.444;13.556;2023-03-23T07:54:59;100172.75;;;10.37;100.00
7052;BME280;3567;52.444;13.556;2023-03-23T07:57:27;100160.78;;;10.39;100.00
7052;BME280;3567;52.444;13.556;2023-03-23T07:59:53;100157.59;;;10.42;100.00
7052;BME280;3567;52.444;13.556;2023-03-23T08:02:18;100146.66;;;10.44;100.00
7052;BME280;3567;52.444;13.556;2023-03-23T08:04:44;100135.44;;;10.47;100.00
7052;BME280;3567;52.444;13.556;2023-03-23T08:07:10;100120.19;;;10.47;100.00
7052;BME280;3567;52.444;13.556;2023-03-23T08:09:37;100111.59;;;10.45;100.00
7052;BME280;3567;52.444;13.556;2023-03-23T08:12:04;100107.63;;;10.48;100.00
7052;BME280;3567;52.444;13.556;2023-03-23T08:14:29;100109.22;;;10.49;100.00
7052;BME280;3567;52.444;13.556;2023-03-23T08:16:55;100112.50;;;10.51;100.00
7052;BME280;3567;52.444;13.556;2023-03-23T08:19:22;100118.75;;;10.57;100.00
7052;BME280;3567;52.444;13.556;2023-03-23T08:21:47;100129.88;;;10.65;100.00
7052;BME280;3567;52.444;13.556;2023-03-23T08:24:13;100151.22;;;10.77;100.00
7052;BME280;3567;52.444;13.556;2023-03-23T08:26:39;100161.50;;;10.85;100.00
7052;BME280;3567;52.444;13.556;2023-03-23T08:29:05;100168.34;;;10.93;100.00
7052;BME280;3567;52.444;13.556;2023-03-23T08:31:31;100169.53;;;11.02;100.00
7052;BME280;3567;52.444;13.556;2023-03-23T08:33:59;100160.13;;;10.99;100.00
7052;BME280;3567;52.444;13.556;2023-03-23T08:36:26;100150.28;;;11.05;100.00
7052;BME280;3567;52.444;13.556;2023-03-23T08:38:52;100155.47;;;11.12;100.00
7052;BME280;3567;52.444;13.556;2023-03-23T08:41:18;100168.41;;;11.15;100.00
7052;BME280;3567;52.444;13.556;2023-03-23T08:43:44;100169.75;;;11.17;100.00
7052;BME280;3567;52.444;13.556;2023-03-23T08:46:10;100169.03;;;11.22;100.00
7052;BME280;3567;52.444;13.556;2023-03-23T08:48:36;100182.50;;;11.27;100.00
7052;BME280;3567;52.444;13.556;2023-03-23T08:51:04;100180.88;;;11.26;100.00
7052;BME280;3567;52.444;13.556;2023-03-23T08:53:30;100175.34;;;11.33;100.00
7052;BME280;3567;52.444;13.556;2023-03-23T08:55:56;100176.81;;;11.40;100.00
7052;BME280;3567;52.444;13.556;2023-03-23T08:58:27;100161.28;;;11.42;100.00
7052;BME280;3567;52.444;13.556;2023-03-23T09:00:53;100142.25;;;11.44;100.00
7052;BME280;3567;52.444;13.556;2023-03-23T09:03:19;100145.31;;;11.52;100.00
7052;BME280;3567;52.444;13.556;2023-03-23T09:05:44;100161.41;;;11.52;100.00
7052;BME280;3567;52.444;13.556;2023-03-23T09:08:11;100163.63;;;11.61;100.00
7052;BME280;3567;52.444;13.556;2023-03-23T09:10:37;100176.16;;;11.72;100.00
7052;BME280;3567;52.444;13.556;2023-03-23T09:13:04;100181.16;;;11.85;100.00
7052;BME280;3567;52.444;13.556;2023-03-23T09:15:30;100175.28;;;12.10;100.00
7052;BME280;3567;52.444;13.556;2023-03-23T09:17:56;100180.28;;;12.28;100.00
7052;BME280;3567;52.444;13.556;2023-03-23T09:20:24;100180.59;;;12.32;100.00
7052;BME280;3567;52.444;13.556;2023-03-23T09:22:53;100175.94;;;12.22;100.00
7052;BME280;3567;52.444;13.556;2023-03-23T09:25:21;100182.06;;;12.18;100.00
7052;BME280;3567;52.444;13.556;2023-03-23T09:27:56;100183.13;;;12.17;100.00
7052;BME280;3567;52.444;13.556;2023-03-23T09:30:31;100168.94;;;12.21;100.00
7052;BME280;3567;52.444;13.556;2023-03-23T09:32:57;100178.88;;;12.21;100.00
7052;BME280;3567;52.444;13.556;2023-03-23T09:35:26;100161.50;;;12.28;100.00
7052;BME280;3567;52.444;13.556;2023-03-23T09:37:53;100162.28;;;12.29;100.00
7052;BME280;3567;52.444;13.556;2023-03-23T09:40:23;100167.13;;;12.27;100.00
7052;BME280;3567;52.444;13.556;2023-03-23T09:50:52;100177.72;;;12.71;100.00
7052;BME280;3567;52.444;13.556;2023-03-23T09:53:26;100182.50;;;12.96;100.00
7052;BME280;3567;52.444;13.556;2023-03-23T09:55:53;100184.53;;;13.16;100.00
7052;BME280;3567;52.444;13.556;2023-03-23T09:58:43;100188.44;;;13.35;100.00
7052;BME280;3567;52.444;13.556;2023-03-23T10:01:16;100195.25;;;13.53;100.00
7052;BME280;3567;52.444;13.556;2023-03-23T10:03:44;100186.97;;;13.59;100.00
7052;BME280;3567;52.444;13.556;2023-03-23T10:06:13;100181.69;;;13.80;100.00
7052;BME280;3567;52.444;13.556;2023-03-23T10:08:50;100192.16;;;13.81;100.00
7052;BME280;3567;52.444;13.556;2023-03-23T10:16:59;100187.09;;;14.00;100.00
7052;BME280;3567;52.444;13.556;2023-03-23T10:22:10;100179.28;;;13.94;100.00
7052;BME280;3567;52.444;13.556;2023-03-23T10:24:43;100188.16;;;13.89;100.00
7052;BME280;3567;52.444;13.556;2023-03-23T10:28:02;100166.66;;;13.99;100.00
7052;BME280;3567;52.444;13.556;2023-03-23T10:30:33;100167.47;;;14.05;100.00
7052;BME280;3567;52.444;13.556;2023-03-23T10:33:10;100175.03;;;14.08;100.00
7052;BME280;3567;52.444;13.556;2023-03-23T10:35:54;100169.91;;;14.06;100.00
7052;BME280;3567;52.444;13.556;2023-03-23T10:38:28;100168.06;;;14.17;100.00
7052;BME280;3567;52.444;13.556;2023-03-23T10:41:24;100171.59;;;14.33;97.02
7052;BME280;3567;52.444;13.556;2023-03-23T10:43:50;100164.56;;;14.42;100.00
7052;BME280;3567;52.444;13.556;2023-03-23T10:46:46;100161.94;;;14.57;99.53
7052;BME280;3567;52.444;13.556;2023-03-23T10:49:27;100168.13;;;14.73;99.10
7052;BME280;3567;52.444;13.556;2023-03-23T10:54:36;100166.81;;;14.71;94.95
7052;BME280;3567;52.444;13.556;2023-03-23T10:57:12;100172.19;;;14.71;92.98
7052;BME280;3567;52.444;13.556;2023-03-23T10:59:40;100172.72;;;14.67;91.71
7052;BME280;3567;52.444;13.556;2023-03-23T11:02:18;100170.56;;;14.64;91.85
7052;BME280;3567;52.444;13.556;2023-03-23T11:04:53;100168.94;;;14.63;92.03
7052;BME280;3567;52.444;13.556;2023-03-23T11:07:21;100174.09;;;14.65;90.80
7052;BME280;3567;52.444;13.556;2023-03-23T11:09:54;100173.81;;;14.66;89.10
7052;BME280;3567;52.444;13.556;2023-03-23T11:12:21;100174.88;;;14.65;88.27
7052;BME280;3567;52.444;13.556;2023-03-23T11:14:48;100174.09;;;14.70;89.47
7052;BME280;3567;52.444;13.556;2023-03-23T11:17:25;100185.13;;;14.74;86.55
7052;BME280;3567;52.444;13.556;2023-03-23T11:19:52;100183.22;;;14.74;87.23
7052;BME280;3567;52.444;13.556;2023-03-23T11:22:31;100185.13;;;14.79;86.42
7052;BME280;3567;52.444;13.556;2023-03-23T11:25:03;100176.50;;;14.82;86.92
7052;BME280;3567;52.444;13.556;2023-03-23T11:27:29;100175.94;;;14.90;87.04
7052;BME280;3567;52.444;13.556;2023-03-23T11:30:00;100169.47;;;14.96;85.70
7052;BME280;3567;52.444;13.556;2023-03-23T11:32:32;100172.16;;;15.01;85.64
7052;BME280;3567;52.444;13.556;2023-03-23T11:35:00;100174.88;;;14.96;83.08
7052;BME280;3567;52.444;13.556;2023-03-23T11:37:35;100178.63;;;15.05;84.91
7052;BME280;3567;52.444;13.556;2023-03-23T11:42:55;100175.13;;;15.20;84.06
7052;BME280;3567;52.444;13.556;2023-03-23T11:45:30;100179.13;;;15.33;84.09
7052;BME280;3567;52.444;13.556;2023-03-23T11:48:15;100185.06;;;15.40;82.04
7052;BME280;3567;52.444;13.556;2023-03-23T11:51:01;100189.88;;;15.48;81.93
7052;BME280;3567;52.444;13.556;2023-03-23T11:56:22;100188.53;;;15.56;80.56
7052;BME280;3567;52.444;13.556;2023-03-23T11:58:49;100192.81;;;15.62;80.28
7052;BME280;3567;52.444;13.556;2023-03-23T12:17:54;100196.72;;;16.05;75.31
7052;BME280;3567;52.444;13.556;2023-03-23T12:20:38;100199.44;;;16.05;75.88
7052;BME280;3567;52.444;13.556;2023-03-23T12:23:22;100194.81;;;16.11;75.65
7052;BME280;3567;52.444;13.556;2023-03-23T12:26:17;100185.28;;;16.18;74.93
7052;BME280;3567;52.444;13.556;2023-03-23T12:31:25;100180.19;;;16.17;74.29
7052;BME280;3567;52.444;13.556;2023-03-23T12:48:10;100167.09;;;15.90;74.67
7052;BME280;3567;52.444;13.556;2023-03-23T12:50:41;100174.09;;;15.91;74.18
7052;BME280;3567;52.444;13.556;2023-03-23T12:53:15;100162.19;;;15.92;74.69
7052;BME280;3567;52.444;13.556;2023-03-23T12:58:41;100148.09;;;16.05;74.08
7052;BME280;3567;52.444;13.556;2023-03-23T13:01:15;100138.91;;;16.06;73.66
7052;BME280;3567;52.444;13.556;2023-03-23T13:03:51;100128.06;;;16.11;74.11
7052;BME280;3567;52.444;13.556;2023-03-23T13:11:38;100169.59;;;16.26;73.42
7052;BME280;3567;52.444;13.556;2023-03-23T13:19:29;100155.97;;;17.09;70.03
7052;BME280;3567;52.444;13.556;2023-03-23T13:22:13;100150.69;;;17.47;69.91
7052;BME280;3567;52.444;13.556;2023-03-23T13:24:50;100150.56;;;17.57;67.62
7052;BME280;3567;52.444;13.556;2023-03-23T13:27:16;100157.63;;;17.58;68.03
7052;BME280;3567;52.444;13.556;2023-03-23T13:29:45;100157.63;;;17.58;66.26
7052;BME280;3567;52.444;13.556;2023-03-23T13:32:17;100142.91;;;17.64;66.31
7052;BME280;3567;52.444;13.556;2023-03-23T13:34:46;100150.44;;;17.67;66.40
7052;BME280;3567;52.444;13.556;2023-03-23T13:37:22;100144.81;;;17.64;66.18
7052;BME280;3567;52.444;13.556;2023-03-23T13:39:57;100139.31;;;17.74;65.39
7052;BME280;3567;52.444;13.556;2023-03-23T13:42:26;100130.00;;;17.80;63.98
7052;BME280;3567;52.444;13.556;2023-03-23T13:45:52;100131.19;;;17.93;64.75
7052;BME280;3567;52.444;13.556;2023-03-23T13:48:23;100117.28;;;18.18;63.75
7052;BME280;3567;52.444;13.556;2023-03-23T13:53:31;100108.34;;;18.18;61.53
7052;BME280;3567;52.444;13.556;2023-03-23T13:56:13;100107.38;;;18.09;62.28
7052;BME280;3567;52.444;13.556;2023-03-23T13:58:50;100112.94;;;17.98;62.84
7052;BME280;3567;52.444;13.556;2023-03-23T14:01:31;100115.75;;;17.69;62.76
7052;BME280;3567;52.444;13.556;2023-03-23T14:03:59;100117.38;;;17.46;63.94
7052;BME280;3567;52.444;13.556;2023-03-23T14:06:33;100118.97;;;17.28;63.87
7052;BME280;3567;52.444;13.556;2023-03-23T14:09:05;100123.09;;;17.45;63.64
7052;BME280;3567;52.444;13.556;2023-03-23T14:11:32;100121.16;;;17.74;62.74
7052;BME280;3567;52.444;13.556;2023-03-23T14:14:02;100127.28;;;17.56;61.55
7052;BME280;3567;52.444;13.556;2023-03-23T14:16:43;100128.69;;;17.29;60.85
7052;BME280;3567;52.444;13.556;2023-03-23T14:19:25;100130.03;;;17.03;63.58
7052;BME280;3567;52.444;13.556;2023-03-23T14:21:54;100128.38;;;16.83;63.67
7052;BME280;3567;52.444;13.556;2023-03-23T14:24:31;100124.94;;;16.72;65.60
7052;BME280;3567;52.444;13.556;2023-03-23T14:27:11;100123.66;;;16.60;66.02
7052;BME280;3567;52.444;13.556;2023-03-23T14:29:38;100125.38;;;16.45;65.65
7052;BME280;3567;52.444;13.556;2023-03-23T14:32:06;100122.19;;;16.38;65.70
7052;BME280;3567;52.444;13.556;2023-03-23T14:34:32;100132.78;;;16.30;66.32
7052;BME280;3567;52.444;13.556;2023-03-23T14:36:59;100130.19;;;16.19;67.22
7052;BME280;3567;52.444;13.556;2023-03-23T14:39:33;100123.75;;;16.10;67.88
7052;BME280;3567;52.444;13.556;2023-03-23T14:42:05;100120.53;;;16.03;68.32